createdAt,value
2023-03-13T01:59:01.642Z,615.00
2023-03-13T02:02:01.767Z,615.00
2023-03-13T02:03:01.764Z,616.00
2023-03-13T02:04:01.729Z,617.00
2023-03-13T02:05:01.758Z,617.00
2023-03-13T02:06:01.785Z,614.00
2023-03-13T02:07:01.795Z,614.00
2023-03-13T02:08:01.801Z,614.00
2023-03-13T02:09:01.818Z,614.00
2023-03-13T02:10:01.826Z,615.00
2023-03-13T02:11:01.845Z,614.00
2023-03-13T02:12:01.838Z,612.00
2023-03-13T02:13:01.866Z,615.00
2023-03-13T02:14:01.902Z,616.00
2023-03-13T02:15:01.855Z,615.00
2023-03-13T02:16:01.943Z,614.00
2023-03-13T02:17:01.922Z,613.00
2023-03-13T02:18:01.929Z,613.00
2023-03-13T02:19:01.991Z,614.00
2023-03-13T02:20:02.056Z,612.00
2023-03-13T02:21:02.018Z,614.00
2023-03-13T02:22:02.003Z,616.00
2023-03-13T02:23:02.035Z,616.00
2023-03-13T02:24:02.034Z,612.00
2023-03-13T02:25:02.106Z,617.00
2023-03-13T02:26:02.228Z,614.00
2023-03-13T02:27:02.233Z,616.00
2023-03-13T02:28:02.221Z,612.00
2023-03-13T02:29:02.250Z,612.00
2023-03-13T02:30:02.242Z,613.00
2023-03-13T02:31:02.332Z,613.00
2023-03-13T02:32:02.322Z,614.00
2023-03-13T02:33:02.339Z,612.00
2023-03-13T02:34:02.364Z,615.00
2023-03-13T02:35:02.352Z,612.00
2023-03-13T02:36:02.447Z,610.00
2023-03-13T02:37:02.361Z,612.00
2023-03-13T02:38:02.416Z,616.00
2023-03-13T02:39:02.535Z,614.00
2023-03-13T02:40:02.626Z,615.00
2023-03-13T02:41:02.749Z,612.00
2023-03-13T02:42:02.792Z,614.00
2023-03-13T02:43:02.924Z,613.00
2023-03-13T02:44:02.983Z,613.00
2023-03-13T02:45:03.131Z,613.00
2023-03-13T02:46:03.254Z,614.00
2023-03-13T02:47:03.340Z,611.00
2023-03-13T02:48:03.306Z,611.00
2023-03-13T02:49:03.324Z,613.00
2023-03-13T02:50:03.322Z,611.00
2023-03-13T02:51:03.325Z,611.00
2023-03-13T02:52:03.293Z,609.00
2023-03-13T02:53:03.398Z,614.00
2023-03-13T02:54:03.449Z,612.00
2023-03-13T02:55:03.547Z,612.00
2023-03-13T02:56:03.640Z,612.00
2023-03-13T02:57:03.726Z,612.00
2023-03-13T02:58:03.756Z,613.00
2023-03-13T02:59:03.759Z,608.00
2023-03-13T03:01:03.800Z,611.00
2023-03-13T03:02:03.737Z,615.00
2023-03-13T03:03:03.803Z,610.00
2023-03-13T03:04:03.796Z,613.00
2023-03-13T03:05:03.799Z,612.00
2023-03-13T03:06:03.794Z,612.00
2023-03-13T03:07:03.802Z,611.00
2023-03-13T03:08:03.817Z,611.00
2023-03-13T03:11:03.799Z,608.00
2023-03-13T03:12:03.850Z,610.00
2023-03-13T03:13:03.824Z,610.00
2023-03-13T03:14:03.799Z,610.00
2023-03-13T03:15:03.791Z,611.00
2023-03-13T03:16:03.844Z,612.00
2023-03-13T03:17:03.905Z,609.00
2023-03-13T03:18:03.986Z,609.00
2023-03-13T03:19:04.091Z,610.00
2023-03-13T03:20:04.085Z,608.00
2023-03-13T03:21:04.077Z,611.00
2023-03-13T03:23:04.079Z,606.00
2023-03-13T03:24:04.064Z,605.00
2023-03-13T03:25:04.078Z,609.00
2023-03-13T04:13:06.065Z,604.00
2023-03-13T04:14:06.103Z,608.00
2023-03-13T04:15:06.158Z,607.00
2023-03-13T04:16:06.199Z,604.00
2023-03-13T04:17:06.275Z,604.00
2023-03-13T04:18:06.329Z,599.00
2023-03-13T04:19:06.338Z,607.00
2023-03-13T04:22:06.513Z,607.00
2023-03-13T04:23:06.547Z,601.00
2023-03-13T04:25:06.645Z,603.00
2023-03-13T04:26:06.707Z,601.00
2023-03-13T04:27:06.714Z,602.00
2023-03-13T04:29:06.839Z,602.00
2023-03-13T04:30:06.898Z,598.00
2023-03-13T04:31:07.730Z,600.00
2023-03-13T04:32:06.984Z,602.00
2023-03-13T04:33:07.019Z,603.00
2023-03-13T04:34:07.060Z,599.00
2023-03-13T04:36:07.246Z,601.00
2023-03-13T04:37:07.227Z,598.00
2023-03-13T04:38:07.218Z,596.00
2023-03-13T04:41:07.362Z,597.00
2023-03-13T04:42:07.439Z,601.00
2023-03-13T04:43:07.428Z,597.00
2023-03-13T04:45:07.583Z,596.00
2023-03-13T04:46:07.647Z,596.00
2023-03-13T04:47:07.628Z,598.00
2023-03-13T04:48:07.645Z,598.00
2023-03-13T04:49:08.923Z,600.00
2023-03-13T04:50:07.668Z,599.00
2023-03-13T04:51:07.686Z,595.00
2023-03-13T04:54:07.765Z,601.00
2023-03-13T04:55:07.770Z,600.00
2023-03-13T04:56:07.759Z,598.00
2023-03-13T04:57:07.744Z,598.00
2023-03-13T04:58:07.736Z,600.00
2023-03-13T04:59:07.806Z,598.00
2023-03-13T05:00:07.831Z,597.00
2023-03-13T05:01:08.017Z,600.00
2023-03-13T05:02:07.933Z,597.00
2023-03-13T05:03:07.961Z,596.00
2023-03-13T05:04:07.950Z,598.00
2023-03-13T05:05:07.958Z,595.00
2023-03-13T05:06:07.940Z,596.00
2023-03-13T05:07:07.971Z,598.00
2023-03-13T05:08:08.073Z,596.00
2023-03-13T05:09:08.017Z,595.00
2023-03-13T05:10:08.031Z,598.00
2023-03-13T05:11:08.002Z,588.00
2023-03-13T05:12:08.045Z,592.00
2023-03-13T05:13:08.046Z,593.00
2023-03-13T05:14:08.060Z,593.00
2023-03-13T05:15:08.075Z,594.00
2023-03-13T05:16:08.142Z,594.00
2023-03-13T05:17:08.078Z,594.00
2023-03-13T05:18:08.051Z,594.00
2023-03-13T05:19:08.063Z,589.00
2023-03-13T05:20:08.104Z,597.00
2023-03-13T05:21:08.745Z,597.00
2023-03-13T05:22:08.226Z,596.00
2023-03-13T05:23:08.226Z,588.00
2023-03-13T05:24:08.210Z,594.00
2023-03-13T05:25:08.209Z,594.00
2023-03-13T05:26:08.247Z,592.00
2023-03-13T05:27:08.306Z,592.00
2023-03-13T05:28:08.252Z,593.00
2023-03-13T05:29:08.325Z,592.00
2023-03-13T05:30:08.308Z,593.00
2023-03-13T05:31:08.325Z,593.00
2023-03-13T05:32:08.293Z,592.00
2023-03-13T05:33:08.352Z,591.00
2023-03-13T05:34:08.471Z,593.00
2023-03-13T05:35:08.479Z,587.00
2023-03-13T05:36:08.483Z,590.00
2023-03-13T06:01:16.041Z,588.00
2023-03-13T06:08:09.004Z,590.00
2023-03-13T06:09:09.013Z,592.00
2023-03-13T06:10:09.019Z,591.00
2023-03-13T06:11:08.992Z,587.00
2023-03-13T06:12:09.008Z,586.00
2023-03-13T06:13:19.496Z,585.00
2023-03-13T06:14:09.983Z,586.00
2023-03-13T06:15:11.084Z,586.00
2023-03-13T06:16:09.288Z,589.00
2023-03-13T06:17:08.931Z,588.00
2023-03-13T06:18:08.938Z,589.00
2023-03-13T06:19:08.936Z,580.00
2023-03-13T06:21:08.939Z,581.00
2023-03-13T06:22:08.917Z,578.00
2023-03-13T06:23:08.895Z,580.00
2023-03-13T06:24:08.947Z,579.00
2023-03-13T06:25:08.915Z,579.00
2023-03-13T06:26:08.914Z,579.00
2023-03-13T06:27:08.902Z,576.00
2023-03-13T06:28:08.866Z,575.00
2023-03-13T06:29:08.912Z,577.00
2023-03-13T06:30:08.852Z,574.00
2023-03-13T06:31:09.019Z,575.00
2023-03-13T06:32:08.944Z,578.00
2023-03-13T06:33:09.008Z,574.00
2023-03-13T06:34:08.862Z,579.00
2023-03-13T06:35:08.852Z,571.00
2023-03-13T06:36:08.820Z,571.00
2023-03-13T06:37:08.872Z,575.00
2023-03-13T06:38:08.798Z,573.00
2023-03-13T06:39:08.824Z,565.00
2023-03-13T06:40:08.827Z,574.00
2023-03-13T06:41:08.826Z,578.00
2023-03-13T06:42:08.854Z,573.00
2023-03-13T06:43:08.808Z,580.00
2023-03-13T06:44:08.796Z,583.00
2023-03-13T06:45:08.768Z,584.00
2023-03-13T06:46:15.797Z,586.00
2023-03-13T07:15:08.884Z,1028.00
2023-03-13T07:45:10.890Z,649.00
2023-03-13T07:54:10.384Z,500.00
2023-03-13T08:35:12.062Z,609.00
2023-03-13T08:46:11.887Z,793.00
2023-03-13T08:47:11.727Z,808.00
2023-03-13T08:48:11.763Z,827.00
2023-03-13T08:49:11.754Z,821.00
2023-03-13T08:50:11.846Z,821.00
2023-03-13T08:51:11.955Z,836.00
2023-03-13T08:52:11.861Z,842.00
2023-03-13T08:53:11.868Z,827.00
2023-03-13T08:54:11.944Z,847.00
2023-03-13T08:55:11.892Z,841.00
2023-03-13T08:56:11.908Z,841.00
2023-03-13T08:57:11.940Z,848.00
2023-03-13T08:58:11.930Z,816.00
2023-03-13T08:59:11.926Z,808.00
2023-03-13T09:00:11.941Z,815.00
2023-03-13T09:01:11.955Z,795.00
2023-03-13T09:02:12.157Z,756.00
2023-03-13T09:03:11.986Z,783.00
2023-03-13T09:04:12.034Z,826.00
2023-03-13T09:05:11.980Z,818.00
2023-03-13T09:06:11.986Z,832.00
2023-03-13T09:07:12.011Z,860.00
2023-03-13T09:08:12.021Z,867.00
2023-03-13T09:09:12.092Z,875.00
2023-03-13T09:13:12.275Z,943.00
2023-03-13T09:14:12.319Z,955.00
2023-03-13T09:15:12.361Z,968.00
2023-03-13T09:16:12.497Z,975.00
2023-03-13T09:17:12.461Z,993.00
2023-03-13T09:18:12.571Z,1005.00
2023-03-13T09:19:12.552Z,1014.00
2023-03-13T09:20:13.342Z,1026.00
2023-03-13T09:21:12.670Z,1029.00
2023-03-13T09:22:12.673Z,1057.00
2023-03-13T09:23:12.751Z,1066.00
2023-03-13T09:27:12.920Z,1107.00
2023-03-13T09:28:13.959Z,1115.00
2023-03-13T09:29:12.973Z,1137.00
2023-03-13T09:30:13.045Z,1154.00
2023-03-13T09:31:13.589Z,1171.00
2023-03-13T09:35:13.187Z,1184.00
2023-03-13T09:36:13.294Z,1182.00
2023-03-13T09:37:13.534Z,1182.00
2023-03-13T09:38:13.334Z,1163.00
2023-03-13T09:39:13.363Z,1163.00
2023-03-13T09:40:13.451Z,1152.00
2023-03-13T09:41:13.482Z,1155.00
2023-03-13T09:42:13.584Z,1144.00
2023-03-13T09:43:13.579Z,1136.00
2023-03-13T09:44:13.652Z,1135.00
2023-03-13T09:45:13.704Z,1132.00
2023-03-13T09:47:13.771Z,1129.00
2023-03-13T09:48:13.873Z,1124.00
2023-03-13T09:49:13.917Z,1121.00
2023-03-13T09:50:13.993Z,1098.00
2023-03-13T09:51:14.450Z,1164.00
2023-03-13T09:52:14.044Z,1392.00
2023-03-13T09:53:14.124Z,1404.00
2023-03-13T09:54:14.173Z,1369.00
2023-03-13T09:55:14.207Z,1417.00
2023-03-13T09:56:14.281Z,1434.00
2023-03-13T09:57:14.360Z,1398.00
2023-03-13T09:58:14.408Z,1359.00
2023-03-13T09:59:14.464Z,1358.00
2023-03-13T10:00:14.513Z,1159.00
2023-03-13T10:01:14.790Z,1227.00
2023-03-13T10:03:14.633Z,1344.00
2023-03-13T10:04:14.626Z,1218.00
2023-03-13T10:05:14.629Z,1109.00
2023-03-13T10:06:14.954Z,1006.00
2023-03-13T10:07:14.661Z,978.00
2023-03-13T10:08:14.653Z,1020.00
2023-03-13T10:09:14.678Z,910.00
2023-03-13T10:10:14.681Z,950.00
2023-03-13T10:11:14.702Z,971.00
2023-03-13T10:12:14.719Z,954.00
2023-03-13T10:13:14.693Z,969.00
2023-03-13T10:14:14.741Z,882.00
2023-03-13T10:15:14.770Z,907.00
2023-03-13T10:16:15.707Z,915.00
2023-03-13T10:17:14.719Z,910.00
2023-03-13T10:18:14.796Z,847.00
2023-03-13T10:19:14.814Z,899.00
2023-03-13T10:20:14.765Z,914.00
2023-03-13T10:21:14.787Z,792.00
2023-03-13T10:22:14.750Z,769.00
2023-03-13T10:23:14.759Z,752.00
2023-03-13T10:24:14.807Z,725.00
2023-03-13T10:25:14.751Z,802.00
2023-03-13T10:26:14.846Z,717.00
2023-03-13T10:27:14.986Z,661.00
2023-03-13T10:28:14.762Z,678.00
2023-03-13T10:29:14.770Z,676.00
2023-03-13T10:30:14.840Z,616.00
2023-03-13T10:31:14.863Z,608.00
2023-03-13T10:32:14.860Z,593.00
2023-03-13T10:33:14.872Z,598.00
2023-03-13T10:34:14.837Z,581.00
2023-03-13T10:35:14.927Z,577.00
2023-03-13T10:36:14.905Z,601.00
2023-03-13T10:37:14.873Z,629.00
2023-03-13T10:38:14.937Z,656.00
2023-03-13T10:39:14.955Z,577.00
2023-03-13T10:40:14.967Z,520.00
2023-03-13T10:41:14.958Z,638.00
2023-03-13T10:43:15.027Z,606.00
2023-03-13T10:44:15.060Z,590.00
2023-03-13T10:45:15.007Z,692.00
2023-03-13T10:46:15.064Z,779.00
2023-03-13T10:47:15.455Z,826.00
2023-03-13T10:48:15.110Z,867.00
2023-03-13T10:49:15.283Z,880.00
2023-03-13T10:50:15.073Z,856.00
2023-03-13T10:51:15.136Z,905.00
2023-03-13T10:52:15.463Z,1011.00
2023-03-13T10:53:15.137Z,735.00
2023-03-13T10:54:15.181Z,874.00
2023-03-13T10:55:15.268Z,959.00
2023-03-13T10:56:15.305Z,858.00
2023-03-13T10:57:15.482Z,804.00
2023-03-13T10:58:15.439Z,825.00
2023-03-13T10:59:15.507Z,854.00
2023-03-13T11:00:15.542Z,816.00
2023-03-13T11:01:15.573Z,784.00
2023-03-13T11:02:15.990Z,825.00
2023-03-13T11:03:15.830Z,833.00
2023-03-13T11:04:15.838Z,864.00
2023-03-13T11:05:15.851Z,901.00
2023-03-13T11:06:15.852Z,756.00
2023-03-13T11:07:15.895Z,765.00
2023-03-13T11:08:15.964Z,618.00
2023-03-13T11:09:15.975Z,651.00
2023-03-13T11:10:16.020Z,632.00
2023-03-13T11:11:16.160Z,640.00
2023-03-13T11:12:16.091Z,611.00
2023-03-13T11:13:18.289Z,578.00
2023-03-13T11:14:17.196Z,578.00
2023-03-13T11:15:16.317Z,591.00
2023-03-13T11:16:16.256Z,593.00
2023-03-13T11:17:16.138Z,631.00
2023-03-13T11:18:16.170Z,607.00
2023-03-13T11:19:16.159Z,703.00
2023-03-13T11:20:16.158Z,600.00
2023-03-13T11:21:18.552Z,649.00
2023-03-13T11:22:17.017Z,644.00
2023-03-13T11:26:16.442Z,577.00
2023-03-13T11:27:16.527Z,649.00
2023-03-13T11:28:16.517Z,627.00
2023-03-13T11:29:16.551Z,664.00
2023-03-13T11:30:16.650Z,666.00
2023-03-13T11:31:16.712Z,582.00
2023-03-13T11:32:16.824Z,615.00
2023-03-13T11:43:25.033Z,769.00
2023-03-13T11:44:18.116Z,772.00
2023-03-13T11:45:17.250Z,649.00
2023-03-13T11:46:17.253Z,662.00
2023-03-13T11:47:17.102Z,731.00
2023-03-13T11:48:17.527Z,819.00
2023-03-13T11:49:17.195Z,840.00
2023-03-13T11:50:17.216Z,880.00
2023-03-13T11:51:19.462Z,872.00
2023-03-13T11:52:17.236Z,901.00
2023-03-13T11:53:17.544Z,930.00
2023-03-13T11:54:17.245Z,901.00
2023-03-13T12:07:17.181Z,1329.00
2023-03-13T12:11:17.147Z,1511.00
2023-03-13T12:12:17.137Z,1522.00
2023-03-13T12:13:17.125Z,1579.00
2023-03-13T12:15:19.038Z,1650.00
2023-03-13T12:16:17.110Z,1653.00
2023-03-13T12:17:17.132Z,1675.00
2023-03-13T12:18:17.087Z,1687.00
2023-03-13T12:20:17.055Z,1681.00
2023-03-13T12:21:17.075Z,1662.00
2023-03-13T12:22:17.109Z,1661.00
2023-03-13T12:23:17.153Z,1712.00
2023-03-13T12:24:17.527Z,1714.00
2023-03-13T12:25:17.284Z,806.00
2023-03-13T12:26:17.345Z,1244.00
2023-03-13T12:27:17.390Z,1371.00
2023-03-13T12:28:17.573Z,1507.00
2023-03-13T12:29:17.571Z,1554.00
2023-03-13T12:30:17.571Z,1577.00
2023-03-13T12:31:17.766Z,1633.00
2023-03-13T12:32:17.720Z,1705.00
2023-03-13T12:33:17.698Z,1798.00
2023-03-13T12:34:18.030Z,1854.00
2023-03-13T12:35:17.683Z,1898.00
2023-03-13T12:36:17.740Z,1938.00
2023-03-13T12:37:17.720Z,1952.00
2023-03-13T12:38:17.803Z,1964.00
2023-03-13T12:39:18.037Z,1986.00
2023-03-13T12:40:17.877Z,1989.00
2023-03-13T12:41:17.803Z,1990.00
2023-03-13T12:42:17.753Z,1996.00
2023-03-13T12:43:17.790Z,2007.00
2023-03-13T12:44:18.069Z,2004.00
2023-03-13T12:45:17.891Z,2000.00
2023-03-13T12:46:17.916Z,1977.00
2023-03-13T12:47:18.002Z,1982.00
2023-03-13T12:48:18.073Z,1972.00
2023-03-13T12:49:18.008Z,1972.00
2023-03-13T12:50:18.528Z,1969.00
2023-03-13T12:51:17.947Z,1981.00
2023-03-13T12:52:17.977Z,1982.00
2023-03-13T12:53:20.792Z,1990.00
2023-03-13T12:54:18.012Z,1974.00
2023-03-13T12:55:17.993Z,1948.00
2023-03-13T12:56:17.985Z,1939.00
2023-03-13T12:57:18.042Z,1933.00
2023-03-13T12:58:17.976Z,1934.00
2023-03-13T12:59:18.069Z,1928.00
2023-03-13T13:00:17.971Z,1939.00
2023-03-13T13:01:17.951Z,1924.00
2023-03-13T13:02:17.915Z,1919.00
2023-03-13T13:03:17.913Z,1917.00
2023-03-13T13:04:18.012Z,1905.00
2023-03-13T13:05:17.919Z,1892.00
2023-03-13T13:06:17.894Z,1890.00
2023-03-13T13:07:17.906Z,1907.00
2023-03-13T13:08:17.853Z,1904.00
2023-03-13T13:09:17.841Z,1876.00
2023-03-13T13:10:17.842Z,1853.00
2023-03-13T13:11:17.856Z,1856.00
2023-03-13T13:12:17.837Z,1845.00
2023-03-13T13:13:17.829Z,1856.00
2023-03-13T13:14:17.851Z,1864.00
2023-03-13T13:15:17.805Z,1859.00
2023-03-13T13:16:17.915Z,1840.00
2023-03-13T13:17:17.817Z,1851.00
2023-03-13T13:18:17.805Z,1853.00
2023-03-13T13:19:17.809Z,1845.00
2023-03-13T13:20:17.787Z,1833.00
2023-03-13T13:21:17.810Z,1847.00
2023-03-13T13:22:17.780Z,1847.00
2023-03-13T13:23:17.773Z,1836.00
2023-03-13T13:24:17.746Z,1831.00
2023-03-13T13:25:17.735Z,1837.00
2023-03-13T13:26:17.734Z,1834.00
2023-03-13T13:27:17.738Z,1845.00
2023-03-13T13:28:17.744Z,1836.00
2023-03-13T13:29:17.734Z,1818.00
2023-03-13T13:30:17.723Z,1855.00
2023-03-13T13:31:17.833Z,1852.00
2023-03-13T13:32:17.879Z,1897.00
2023-03-13T13:33:17.896Z,1864.00
2023-03-13T13:34:17.698Z,1835.00
2023-03-13T13:35:17.698Z,1834.00
2023-03-13T13:36:17.712Z,1835.00
2023-03-13T13:37:17.716Z,1740.00
2023-03-13T13:38:17.673Z,1753.00
2023-03-13T13:39:17.656Z,1774.00
2023-03-13T13:40:17.699Z,1782.00
2023-03-13T13:41:17.670Z,1753.00
2023-03-13T13:42:17.686Z,1775.00
2023-03-13T13:43:17.654Z,1694.00
2023-03-13T13:44:17.640Z,1651.00
2023-03-13T13:45:17.626Z,1695.00
2023-03-13T13:46:17.606Z,1703.00
2023-03-13T13:47:17.593Z,1686.00
2023-03-13T13:48:17.618Z,1699.00
2023-03-13T13:49:17.574Z,1729.00
2023-03-13T13:50:17.611Z,1722.00
2023-03-13T13:51:17.580Z,1729.00
2023-03-13T13:52:17.600Z,1745.00
2023-03-13T13:53:17.587Z,1374.00
2023-03-13T13:54:17.578Z,1121.00
2023-03-13T13:55:17.672Z,1033.00
2023-03-13T13:56:17.512Z,1247.00
2023-03-13T13:57:17.760Z,1187.00
2023-03-13T13:58:17.693Z,1291.00
2023-03-13T13:59:17.638Z,1360.00
2023-03-13T14:00:18.143Z,1610.00
2023-03-13T14:01:17.578Z,1825.00
2023-03-13T14:02:17.505Z,1961.00
2023-03-13T14:03:17.507Z,2058.00
2023-03-13T14:04:17.507Z,2160.00
2023-03-13T14:05:17.582Z,2128.00
2023-03-13T14:06:17.534Z,2209.00
2023-03-13T14:07:17.548Z,2230.00
2023-03-13T14:08:17.607Z,2124.00
2023-03-13T14:09:17.659Z,2228.00
2023-03-13T14:10:17.986Z,2272.00
2023-03-13T14:11:17.743Z,2154.00
2023-03-13T14:12:17.951Z,2216.00
2023-03-13T14:13:17.881Z,2232.00
2023-03-13T14:14:17.856Z,2156.00
2023-03-13T14:15:17.896Z,2166.00
2023-03-13T14:16:17.976Z,2153.00
2023-03-13T14:17:17.971Z,2218.00
2023-03-13T14:18:18.021Z,2217.00
2023-03-13T14:19:18.065Z,2254.00
2023-03-13T14:20:18.555Z,2256.00
2023-03-13T14:21:18.110Z,2228.00
2023-03-13T14:22:18.152Z,2256.00
2023-03-13T14:23:18.206Z,2223.00
2023-03-13T14:24:18.235Z,2145.00
2023-03-13T14:25:18.271Z,2187.00
2023-03-13T14:26:18.273Z,2213.00
2023-03-13T14:27:18.312Z,2246.00
2023-03-13T14:28:18.415Z,2224.00
2023-03-13T14:29:18.417Z,2211.00
2023-03-13T14:30:18.478Z,2155.00
2023-03-13T14:31:18.500Z,2113.00
2023-03-13T14:32:18.996Z,2129.00
2023-03-13T14:33:18.571Z,2135.00
2023-03-13T14:34:18.617Z,2101.00
2023-03-13T14:35:18.644Z,2103.00
2023-03-13T14:36:18.661Z,2090.00
2023-03-13T14:37:18.747Z,2054.00
2023-03-13T14:38:18.777Z,2011.00
2023-03-13T14:39:18.811Z,2013.00
2023-03-13T14:40:18.854Z,2060.00
2023-03-13T14:41:18.906Z,2061.00
2023-03-13T14:42:18.947Z,2044.00
2023-03-13T14:43:18.996Z,2012.00
2023-03-13T14:44:19.059Z,2045.00
2023-03-13T14:45:19.137Z,2035.00
2023-03-13T14:46:19.200Z,2020.00
2023-03-13T14:47:19.166Z,2012.00
2023-03-13T14:48:19.230Z,1946.00
2023-03-13T14:49:19.296Z,1943.00
2023-03-13T14:50:19.256Z,1932.00
2023-03-13T14:51:20.008Z,1940.00
2023-03-13T14:52:19.354Z,1949.00
2023-03-13T14:53:19.378Z,1909.00
2023-03-13T14:54:19.464Z,1940.00
2023-03-13T14:55:19.518Z,1926.00
2023-03-13T14:56:19.549Z,1914.00
2023-03-13T14:57:19.587Z,1918.00
2023-03-13T14:58:19.612Z,1902.00
2023-03-13T14:59:19.705Z,1928.00
2023-03-13T15:00:19.760Z,1925.00
2023-03-13T15:01:19.850Z,1905.00
2023-03-13T15:02:19.833Z,1868.00
2023-03-13T15:03:19.829Z,1855.00
2023-03-13T15:04:19.967Z,1843.00
2023-03-13T15:05:19.950Z,1828.00
2023-03-13T15:06:20.003Z,1833.00
2023-03-13T15:07:20.051Z,1810.00
2023-03-13T15:08:20.104Z,1832.00
2023-03-13T15:09:20.202Z,1792.00
2023-03-13T15:10:20.217Z,1797.00
2023-03-13T15:11:20.240Z,1834.00
2023-03-13T15:12:20.282Z,1800.00
2023-03-13T15:13:20.356Z,1809.00
2023-03-13T15:14:20.361Z,1803.00
2023-03-13T15:15:20.377Z,1780.00
2023-03-13T15:16:20.531Z,1796.00
2023-03-13T15:17:20.497Z,1799.00
2023-03-13T15:18:20.564Z,1767.00
2023-03-13T15:19:20.602Z,1776.00
2023-03-13T15:20:20.617Z,1780.00
2023-03-13T15:21:20.724Z,1757.00
2023-03-13T15:22:20.716Z,1766.00
2023-03-13T15:23:20.840Z,1713.00
2023-03-13T15:24:20.830Z,1689.00
2023-03-13T15:25:20.876Z,1698.00
2023-03-13T15:26:20.974Z,1668.00
2023-03-13T15:27:21.049Z,1685.00
2023-03-13T15:28:21.050Z,1670.00
2023-03-13T15:29:21.104Z,1623.00
2023-03-13T15:30:21.175Z,1683.00
2023-03-13T15:31:21.223Z,1702.00
2023-03-13T15:32:21.282Z,1660.00
2023-03-13T15:33:21.299Z,1634.00
2023-03-13T15:34:21.377Z,1640.00
2023-03-13T15:35:21.424Z,1574.00
2023-03-13T15:36:21.449Z,1543.00
2023-03-13T15:37:21.513Z,1569.00
2023-03-13T15:38:21.541Z,1543.00
2023-03-13T15:39:21.619Z,1580.00
2023-03-13T15:40:21.674Z,1565.00
2023-03-13T15:41:21.703Z,1541.00
2023-03-13T15:42:21.776Z,1532.00
2023-03-13T15:43:21.806Z,1541.00
2023-03-13T15:44:21.889Z,1494.00
2023-03-13T15:45:21.938Z,1482.00
2023-03-13T15:46:22.070Z,1494.00
2023-03-13T15:47:22.072Z,1522.00
2023-03-13T15:48:22.142Z,1504.00
2023-03-13T15:49:22.159Z,1477.00
2023-03-13T15:50:22.242Z,1499.00
2023-03-13T15:51:22.302Z,1437.00
2023-03-13T15:52:22.347Z,1432.00
2023-03-13T15:53:22.452Z,1419.00
2023-03-13T15:54:22.427Z,1450.00
2023-03-13T15:55:22.520Z,1408.00
2023-03-13T15:56:22.571Z,1458.00
2023-03-13T15:57:22.665Z,1450.00
2023-03-13T15:58:22.712Z,1452.00
2023-03-13T15:59:22.840Z,1437.00
2023-03-13T16:00:22.853Z,1416.00
2023-03-13T16:01:23.061Z,1413.00
2023-03-13T16:02:22.953Z,1434.00
2023-03-13T16:03:23.005Z,1442.00
2023-03-13T16:04:23.138Z,1421.00
2023-03-13T16:05:23.158Z,1444.00
2023-03-13T16:06:23.202Z,1454.00
2023-03-13T16:07:23.277Z,1405.00
2023-03-13T16:08:34.593Z,1394.00
2023-03-13T16:09:24.316Z,1395.00
2023-03-13T16:10:25.383Z,1392.00
2023-03-13T16:11:23.309Z,1386.00
2023-03-13T16:12:23.319Z,1417.00
2023-03-13T16:13:23.383Z,1394.00
2023-03-13T16:14:23.431Z,1368.00
2023-03-13T16:15:23.534Z,1391.00
2023-03-13T16:16:23.610Z,1378.00
2023-03-13T16:17:23.586Z,1320.00
2023-03-13T16:18:23.671Z,1280.00
2023-03-13T16:19:23.712Z,1275.00
2023-03-13T16:20:23.902Z,1279.00
2023-03-13T16:21:23.809Z,1303.00
2023-03-13T16:22:23.894Z,1215.00
2023-03-13T16:23:23.954Z,1226.00
2023-03-13T16:24:24.021Z,1224.00
2023-03-13T16:25:24.101Z,1245.00
2023-03-13T16:26:24.133Z,1239.00
2023-03-13T16:27:24.203Z,1205.00
2023-03-13T16:28:24.262Z,1237.00
2023-03-13T16:29:24.321Z,1184.00
2023-03-13T16:30:24.595Z,1156.00
2023-03-13T16:31:24.529Z,1200.00
2023-03-13T16:32:24.572Z,1183.00
2023-03-13T16:33:24.547Z,1187.00
2023-03-13T16:34:24.591Z,1225.00
2023-03-13T16:35:24.688Z,1127.00
2023-03-13T16:36:24.718Z,1129.00
2023-03-13T16:37:24.783Z,1097.00
2023-03-13T16:38:24.796Z,1136.00
2023-03-13T16:39:24.826Z,1139.00
2023-03-13T16:40:24.847Z,1146.00
2023-03-13T16:41:24.900Z,1148.00
2023-03-13T16:42:24.982Z,1152.00
2023-03-13T16:43:24.972Z,1169.00
2023-03-13T16:44:27.083Z,1095.00
2023-03-13T16:45:25.068Z,1113.00
2023-03-13T16:46:25.123Z,992.00
2023-03-13T16:47:25.104Z,1071.00
2023-03-13T16:48:25.108Z,1048.00
2023-03-13T16:49:25.103Z,1071.00
2023-03-13T16:50:25.177Z,1058.00
2023-03-13T16:51:25.144Z,1070.00
2023-03-13T16:52:25.180Z,1032.00
2023-03-13T16:53:25.208Z,914.00
2023-03-13T16:54:25.254Z,941.00
2023-03-13T16:55:25.259Z,988.00
2023-03-13T16:56:25.259Z,943.00
2023-03-13T16:57:25.239Z,947.00
2023-03-13T16:58:25.251Z,932.00
2023-03-13T16:59:25.246Z,954.00
2023-03-13T17:00:25.315Z,921.00
2023-03-13T17:01:25.244Z,863.00
2023-03-13T17:02:25.283Z,892.00
2023-03-13T17:03:25.227Z,922.00
2023-03-13T17:04:25.255Z,918.00
2023-03-13T17:05:25.280Z,898.00
2023-03-13T17:06:25.254Z,908.00
2023-03-13T17:07:25.279Z,899.00
2023-03-13T17:08:25.257Z,891.00
2023-03-13T17:09:25.255Z,856.00
2023-03-13T17:10:25.294Z,880.00
2023-03-13T17:11:25.271Z,920.00
2023-03-13T17:12:25.325Z,960.00
2023-03-13T17:13:25.360Z,958.00
2023-03-13T17:14:25.286Z,979.00
2023-03-13T17:15:25.310Z,894.00
2023-03-13T17:16:25.369Z,837.00
2023-03-13T17:17:25.304Z,890.00
2023-03-13T17:18:25.340Z,945.00
2023-03-13T17:19:25.353Z,967.00
2023-03-13T17:20:25.349Z,1008.00
2023-03-13T17:21:25.368Z,1000.00
2023-03-13T17:22:25.392Z,968.00
2023-03-13T17:23:25.388Z,956.00
2023-03-13T17:24:25.408Z,955.00
2023-03-13T17:25:25.411Z,946.00
2023-03-13T17:26:25.407Z,940.00
2023-03-13T17:27:25.383Z,972.00
2023-03-13T17:28:25.394Z,946.00
2023-03-13T17:29:25.373Z,888.00
2023-03-13T17:30:25.381Z,958.00
2023-03-13T17:31:25.452Z,876.00
2023-03-13T17:32:25.537Z,815.00
2023-03-13T17:33:25.407Z,816.00
2023-03-13T17:34:25.413Z,777.00
2023-03-13T17:35:25.405Z,844.00
2023-03-13T17:36:25.383Z,900.00
2023-03-13T17:37:26.096Z,981.00
2023-03-13T17:38:25.392Z,822.00
2023-03-13T17:39:25.481Z,835.00
2023-03-13T17:40:25.410Z,830.00
2023-03-13T17:41:25.427Z,859.00
2023-03-13T17:42:25.422Z,898.00
2023-03-13T17:43:25.419Z,903.00
2023-03-13T17:44:25.424Z,921.00
2023-03-13T17:45:25.405Z,899.00
2023-03-13T17:46:25.523Z,897.00
2023-03-13T17:48:25.454Z,745.00
2023-03-13T17:49:25.473Z,813.00
2023-03-13T17:50:25.469Z,827.00
2023-03-13T17:51:25.452Z,887.00
2023-03-13T17:52:25.493Z,808.00
2023-03-13T17:53:25.523Z,879.00
2023-03-13T17:54:25.526Z,813.00
2023-03-13T17:55:25.530Z,845.00
2023-03-13T17:56:25.539Z,746.00
2023-03-13T17:57:25.557Z,780.00
2023-03-13T17:58:25.581Z,747.00
2023-03-13T17:59:25.580Z,760.00
2023-03-13T18:00:25.588Z,786.00
2023-03-13T18:01:25.640Z,810.00
2023-03-13T18:02:25.682Z,836.00
2023-03-13T18:03:25.666Z,841.00
2023-03-13T18:04:25.674Z,870.00
2023-03-13T18:05:25.694Z,885.00
2023-03-13T18:06:25.688Z,903.00
2023-03-13T18:07:25.718Z,649.00
2023-03-13T18:08:25.704Z,658.00
2023-03-13T18:09:25.753Z,659.00
2023-03-13T18:10:25.729Z,738.00
2023-03-13T18:11:25.790Z,820.00
2023-03-13T18:12:25.779Z,789.00
2023-03-13T18:13:25.795Z,739.00
2023-03-13T18:14:25.867Z,720.00
2023-03-13T18:15:25.852Z,766.00
2023-03-13T18:16:25.908Z,772.00
2023-03-13T18:17:25.868Z,710.00
2023-03-13T18:18:25.932Z,686.00
2023-03-13T18:19:25.902Z,746.00
2023-03-13T18:20:25.985Z,768.00
2023-03-13T18:21:25.942Z,755.00
2023-03-13T18:22:25.953Z,803.00
2023-03-13T18:23:26.020Z,900.00
2023-03-13T18:24:26.018Z,908.00
2023-03-13T18:25:26.019Z,765.00
2023-03-13T18:26:26.034Z,738.00
2023-03-13T18:27:26.034Z,841.00
2023-03-13T18:28:26.125Z,864.00
2023-03-13T18:29:26.138Z,915.00